createdAt,value
2023-03-13T00:00:07.004Z,6.97
2023-03-13T00:01:06.996Z,6.98
2023-03-13T00:03:41.899Z,7.07
2023-03-13T00:04:41.893Z,7.13
2023-03-13T00:05:41.862Z,7.15
2023-03-13T00:06:41.852Z,7.37
2023-03-13T00:07:41.837Z,7.52
2023-03-13T00:08:41.841Z,7.59
2023-03-13T00:09:41.820Z,7.67
2023-03-13T00:10:41.808Z,7.66
2023-03-13T00:11:41.794Z,7.79
2023-03-13T00:12:41.782Z,8.07
2023-03-13T00:13:41.781Z,8.14
2023-03-13T00:14:41.763Z,8.08
2023-03-13T00:15:41.753Z,8.14
2023-03-13T00:16:41.829Z,8.26
2023-03-13T00:17:41.738Z,8.28
2023-03-13T00:18:41.732Z,8.22
2023-03-13T00:19:41.713Z,8.28
2023-03-13T00:20:41.701Z,8.25
2023-03-13T00:21:41.696Z,8.15
2023-03-13T00:22:41.677Z,8.20
2023-03-13T00:23:41.678Z,8.32
2023-03-13T00:24:41.659Z,8.21
2023-03-13T00:25:41.643Z,8.32
2023-03-13T00:26:41.637Z,8.29
2023-03-13T00:27:41.622Z,8.21
2023-03-13T00:28:41.631Z,8.35
2023-03-13T00:29:41.615Z,8.21
2023-03-13T00:30:41.616Z,8.50
2023-03-13T00:31:41.582Z,8.69
2023-03-13T00:32:41.621Z,8.76
2023-03-13T00:33:41.591Z,8.83
2023-03-13T00:34:41.565Z,8.83
2023-03-13T00:35:41.670Z,8.93
2023-03-13T00:36:41.530Z,8.93
2023-03-13T00:37:41.530Z,9.02
2023-03-13T00:38:41.532Z,9.06
2023-03-13T00:39:41.502Z,9.12
2023-03-13T00:40:41.488Z,9.09
2023-03-13T00:41:41.487Z,9.20
2023-03-13T00:42:41.465Z,9.18
2023-03-13T00:43:41.470Z,9.18
2023-03-13T00:44:41.442Z,9.18
2023-03-13T00:45:41.449Z,9.16
2023-03-13T00:46:41.422Z,9.16
2023-03-13T00:47:41.415Z,9.10
2023-03-13T00:48:41.413Z,9.09
2023-03-13T00:49:41.405Z,9.13
2023-03-13T00:50:41.380Z,9.04
2023-03-13T00:51:41.381Z,9.05
2023-03-13T00:52:41.371Z,9.04
2023-03-13T00:53:41.363Z,9.21
2023-03-13T00:54:41.336Z,9.20
2023-03-13T00:55:41.332Z,9.09
2023-03-13T00:56:41.326Z,9.02
2023-03-13T00:57:41.307Z,9.05
2023-03-13T00:58:41.318Z,9.10
2023-03-13T00:59:41.298Z,9.16
2023-03-13T01:00:41.286Z,9.10
2023-03-13T01:01:41.282Z,9.16
2023-03-13T01:02:41.389Z,9.13
2023-03-13T01:03:41.362Z,9.05
2023-03-13T01:04:41.238Z,9.04
2023-03-13T01:05:41.237Z,8.88
2023-03-13T01:06:41.213Z,8.87
2023-03-13T01:07:41.209Z,8.84
2023-03-13T01:08:41.217Z,8.87
2023-03-13T01:09:41.186Z,8.87
2023-03-13T01:10:41.177Z,8.86
2023-03-13T01:11:41.163Z,8.96
2023-03-13T01:12:41.153Z,8.93
2023-03-13T01:13:41.169Z,8.90
2023-03-13T01:14:41.133Z,8.90
2023-03-13T01:15:41.163Z,8.79
2023-03-13T01:16:41.112Z,8.86
2023-03-13T01:17:41.106Z,8.90
2023-03-13T01:18:41.106Z,8.97
2023-03-13T01:19:41.091Z,9.01
2023-03-13T01:20:41.072Z,9.01
2023-03-13T01:21:41.059Z,9.04
2023-03-13T01:22:41.049Z,9.05
2023-03-13T01:23:41.051Z,9.12
2023-03-13T01:24:41.025Z,9.24
2023-03-13T01:25:41.019Z,9.25
2023-03-13T01:26:41.009Z,9.20
2023-03-13T01:27:41.013Z,9.35
2023-03-13T01:28:40.995Z,9.52
2023-03-13T01:29:40.980Z,9.46
2023-03-13T01:30:40.986Z,9.43
2023-03-13T01:31:40.963Z,9.56
2023-03-13T01:32:40.971Z,9.48
2023-03-13T01:33:40.950Z,9.43
2023-03-13T01:34:40.925Z,9.42
2023-03-13T01:35:40.981Z,9.35
2023-03-13T01:36:40.907Z,9.32
2023-03-13T01:37:40.897Z,9.20
2023-03-13T01:38:40.897Z,9.20
2023-03-13T01:39:40.889Z,9.27
2023-03-13T01:40:40.877Z,9.15
2023-03-13T01:41:40.856Z,9.16
2023-03-13T01:42:40.840Z,9.23
2023-03-13T01:43:40.829Z,9.23
2023-03-13T01:44:40.825Z,9.38
2023-03-13T01:45:40.809Z,9.42
2023-03-13T01:46:40.824Z,9.46
2023-03-13T01:47:40.787Z,9.53
2023-03-13T01:48:40.767Z,9.53
2023-03-13T01:49:40.772Z,9.63
2023-03-13T01:50:40.780Z,9.61
2023-03-13T01:51:40.743Z,9.67
2023-03-13T01:52:40.725Z,9.64
2023-03-13T01:53:40.720Z,9.73
2023-03-13T01:54:40.732Z,9.66
2023-03-13T01:55:40.720Z,9.68
2023-03-13T01:56:40.694Z,9.70
2023-03-13T01:57:40.684Z,9.64
2023-03-13T01:58:40.663Z,9.53
2023-03-13T01:59:40.682Z,9.63
2023-03-13T02:00:40.647Z,9.60
2023-03-13T02:01:40.646Z,9.71
2023-03-13T02:02:40.641Z,9.63
2023-03-13T02:03:40.616Z,9.68
2023-03-13T02:04:40.617Z,9.68
2023-03-13T02:05:40.601Z,9.73
2023-03-13T02:06:40.584Z,9.70
2023-03-13T02:07:40.580Z,9.66
2023-03-13T02:08:40.562Z,9.68
2023-03-13T02:09:40.562Z,9.76
2023-03-13T02:10:40.544Z,9.89
2023-03-13T02:11:40.542Z,9.75
2023-03-13T02:12:40.517Z,9.75
2023-03-13T02:13:40.505Z,9.78
2023-03-13T02:14:40.503Z,9.70
2023-03-13T02:15:40.499Z,9.73
2023-03-13T02:16:40.471Z,9.78
2023-03-13T02:17:40.477Z,9.75
2023-03-13T02:18:40.463Z,9.73
2023-03-13T02:19:40.458Z,9.76
2023-03-13T02:20:40.442Z,9.76
2023-03-13T02:21:40.426Z,9.70
2023-03-13T02:22:40.411Z,9.66
2023-03-13T02:23:40.401Z,9.70
2023-03-13T02:24:40.404Z,9.70
2023-03-13T02:25:40.385Z,9.76
2023-03-13T02:26:40.426Z,9.86
2023-03-13T02:27:40.367Z,9.75
2023-03-13T02:28:40.358Z,9.83
2023-03-13T02:29:40.428Z,9.79
2023-03-13T02:30:40.363Z,9.86
2023-03-13T02:31:40.435Z,9.83
2023-03-13T02:32:40.479Z,9.91
2023-03-13T02:33:40.310Z,9.91
2023-03-13T02:34:40.309Z,9.94
2023-03-13T02:35:40.330Z,9.93
2023-03-13T02:36:40.269Z,9.96
2023-03-13T02:37:40.260Z,9.91
2023-03-13T02:38:40.246Z,9.96
2023-03-13T02:39:40.261Z,9.88
2023-03-13T02:40:40.229Z,9.97
2023-03-13T02:41:40.223Z,9.91
2023-03-13T02:42:40.209Z,9.94
2023-03-13T02:43:40.222Z,9.85
2023-03-13T02:44:40.210Z,9.89
2023-03-13T02:45:40.181Z,9.89
2023-03-13T02:46:40.270Z,9.96
2023-03-13T02:47:40.170Z,10.07
2023-03-13T02:48:40.151Z,9.91
2023-03-13T02:49:40.139Z,10.14
2023-03-13T02:50:40.140Z,10.09
2023-03-13T02:51:40.119Z,10.03
2023-03-13T02:52:40.106Z,10.03
2023-03-13T02:53:40.104Z,10.04
2023-03-13T02:54:40.087Z,10.10
2023-03-13T02:55:40.090Z,10.07
2023-03-13T02:56:40.072Z,10.01
2023-03-13T02:57:40.058Z,10.00
2023-03-13T02:58:49.242Z,10.10
2023-03-13T02:59:41.046Z,10.12
2023-03-13T03:00:40.104Z,10.06
2023-03-13T03:01:40.033Z,10.06
2023-03-13T03:02:40.023Z,10.09
2023-03-13T03:03:40.126Z,10.25
2023-03-13T03:04:40.003Z,10.15
2023-03-13T03:05:39.998Z,10.10
2023-03-13T03:06:39.977Z,10.14
2023-03-13T03:07:39.967Z,10.15
2023-03-13T03:08:39.955Z,10.10
2023-03-13T03:09:41.059Z,10.10
2023-03-13T03:10:41.067Z,10.18
2023-03-13T03:11:41.053Z,10.12
2023-03-13T03:12:41.046Z,10.21
2023-03-13T03:13:41.052Z,10.21
2023-03-13T03:14:41.016Z,10.24
2023-03-13T03:15:41.046Z,10.17
2023-03-13T03:16:41.043Z,10.30
2023-03-13T03:17:40.979Z,10.26
2023-03-13T03:18:40.995Z,10.21
2023-03-13T03:19:40.961Z,10.19
2023-03-13T03:20:40.972Z,10.15
2023-03-13T03:21:40.933Z,10.28
2023-03-13T03:22:40.997Z,10.30
2023-03-13T03:23:40.914Z,10.22
2023-03-13T03:24:40.922Z,10.25
2023-03-13T03:25:40.908Z,10.21
2023-03-13T03:26:40.889Z,10.25
2023-03-13T03:27:40.873Z,10.14
2023-03-13T03:28:40.869Z,10.14
2023-03-13T03:29:40.854Z,10.24
2023-03-13T03:30:40.851Z,10.18
2023-03-13T03:31:40.928Z,10.26
2023-03-13T03:32:40.861Z,10.30
2023-03-13T03:33:40.818Z,10.24
2023-03-13T03:34:40.800Z,10.19
2023-03-13T03:35:40.842Z,10.18
2023-03-13T03:36:40.775Z,10.19
2023-03-13T03:37:40.765Z,10.15
2023-03-13T03:38:40.760Z,10.17
2023-03-13T03:39:40.753Z,10.10
2023-03-13T03:40:40.761Z,10.17
2023-03-13T03:41:40.723Z,10.14
2023-03-13T03:42:40.724Z,10.10
2023-03-13T03:43:40.710Z,10.15
2023-03-13T03:44:40.694Z,10.10
2023-03-13T03:45:40.753Z,10.14
2023-03-13T03:46:40.785Z,10.15
2023-03-13T03:47:40.670Z,10.01
2023-03-13T03:48:40.655Z,10.03
2023-03-13T03:49:40.646Z,9.97
2023-03-13T03:50:40.695Z,10.03
2023-03-13T03:51:40.681Z,10.01
2023-03-13T03:52:40.689Z,9.94
2023-03-13T03:53:40.615Z,10.03
2023-03-13T03:54:40.596Z,10.14
2023-03-13T03:55:40.608Z,9.99
2023-03-13T03:56:40.588Z,10.04
2023-03-13T03:57:40.571Z,10.00
2023-03-13T03:58:40.570Z,9.99
2023-03-13T03:59:40.568Z,10.06
2023-03-13T04:00:40.570Z,10.09
2023-03-13T04:01:40.535Z,10.01
2023-03-13T04:02:40.557Z,10.03
2023-03-13T04:03:40.687Z,10.01
2023-03-13T04:04:40.514Z,10.04
2023-03-13T04:05:40.504Z,10.12
2023-03-13T04:06:40.479Z,10.09
2023-03-13T04:07:40.478Z,10.07
2023-03-13T04:08:40.455Z,9.99
2023-03-13T04:09:40.450Z,10.07
2023-03-13T04:10:40.459Z,9.97
2023-03-13T04:11:40.456Z,10.14
2023-03-13T04:12:40.422Z,10.00
2023-03-13T04:13:40.409Z,10.06
2023-03-13T04:14:40.398Z,10.03
2023-03-13T04:15:40.403Z,10.12
2023-03-13T04:16:40.451Z,10.01
2023-03-13T04:17:40.374Z,9.93
2023-03-13T04:18:40.359Z,9.96
2023-03-13T04:19:40.350Z,10.00
2023-03-13T04:20:40.338Z,9.91
2023-03-13T04:21:40.350Z,9.89
2023-03-13T04:22:40.318Z,9.93
2023-03-13T04:23:40.317Z,9.89
2023-03-13T04:24:40.301Z,9.88
2023-03-13T04:25:40.285Z,9.86
2023-03-13T04:26:40.285Z,9.78
2023-03-13T04:27:40.276Z,9.78
2023-03-13T04:28:40.261Z,9.82
2023-03-13T04:29:40.255Z,9.78
2023-03-13T04:30:40.270Z,9.75
2023-03-13T04:31:40.259Z,9.81
2023-03-13T04:32:40.293Z,9.75
2023-03-13T04:33:40.210Z,9.71
2023-03-13T04:34:40.194Z,9.71
2023-03-13T04:35:40.322Z,9.67
2023-03-13T04:36:40.205Z,9.75
2023-03-13T04:37:40.160Z,9.79
2023-03-13T04:38:40.156Z,9.68
2023-03-13T04:39:40.150Z,9.70
2023-03-13T04:40:40.137Z,9.76
2023-03-13T04:41:40.134Z,9.58
2023-03-13T04:42:40.122Z,9.66
2023-03-13T04:43:40.110Z,9.66
2023-03-13T04:44:42.413Z,9.60
2023-03-13T04:45:40.080Z,9.64
2023-03-13T04:46:40.085Z,9.60
2023-03-13T04:47:40.069Z,9.63
2023-03-13T04:48:40.056Z,9.58
2023-03-13T04:49:40.061Z,9.50
2023-03-13T04:50:40.039Z,9.63
2023-03-13T04:51:40.040Z,9.63
2023-03-13T04:52:40.022Z,9.66
2023-03-13T04:53:40.006Z,9.60
2023-03-13T04:54:39.996Z,9.60
2023-03-13T04:55:39.983Z,9.71
2023-03-13T04:56:43.673Z,9.67
2023-03-13T04:57:40.965Z,9.61
2023-03-13T04:58:39.956Z,9.64
2023-03-13T04:59:39.957Z,9.68
2023-03-13T05:00:39.936Z,9.70
2023-03-13T05:01:40.004Z,9.75
2023-03-13T05:02:39.923Z,9.68
2023-03-13T05:03:39.913Z,9.66
2023-03-13T05:04:39.929Z,9.60
2023-03-13T05:05:39.882Z,9.57
2023-03-13T05:06:39.883Z,9.66
2023-03-13T05:07:39.864Z,9.67
2023-03-13T05:08:39.849Z,9.63
2023-03-13T05:09:39.850Z,9.57
2023-03-13T05:10:39.837Z,9.67
2023-03-13T05:11:39.832Z,9.70
2023-03-13T05:12:39.818Z,9.61
2023-03-13T05:13:39.803Z,9.60
2023-03-13T05:14:39.841Z,9.57
2023-03-13T05:15:39.788Z,9.61
2023-03-13T05:16:39.781Z,9.56
2023-03-13T05:17:39.784Z,9.64
2023-03-13T05:18:39.773Z,9.53
2023-03-13T05:19:39.734Z,9.60
2023-03-13T05:20:39.731Z,9.64
2023-03-13T05:21:39.732Z,9.70
2023-03-13T05:22:39.714Z,9.71
2023-03-13T05:23:39.691Z,9.68
2023-03-13T05:24:41.848Z,9.73
2023-03-13T05:25:40.689Z,9.78
2023-03-13T05:26:39.679Z,9.82
2023-03-13T05:27:39.660Z,9.82
2023-03-13T05:28:39.642Z,9.73
2023-03-13T05:29:39.639Z,9.67
2023-03-13T05:30:39.766Z,9.82
2023-03-13T05:31:39.626Z,9.78
2023-03-13T05:32:39.643Z,9.79
2023-03-13T05:33:39.612Z,9.79
2023-03-13T05:34:39.597Z,9.79
2023-03-13T05:35:39.623Z,9.86
2023-03-13T05:36:39.594Z,9.86
2023-03-13T05:37:41.364Z,9.94
2023-03-13T05:38:40.554Z,9.93
2023-03-13T05:39:39.543Z,9.91
2023-03-13T05:40:39.532Z,10.01
2023-03-13T05:41:39.515Z,10.00
2023-03-13T05:42:39.517Z,10.00
2023-03-13T05:43:39.488Z,9.96
2023-03-13T05:44:39.495Z,10.06
2023-03-13T05:45:39.469Z,9.96
2023-03-13T05:46:39.521Z,9.96
2023-03-13T05:47:39.516Z,10.03
2023-03-13T05:48:39.443Z,10.00
2023-03-13T05:49:39.434Z,9.99
2023-03-13T05:50:39.435Z,10.10
2023-03-13T05:51:39.437Z,10.03
2023-03-13T05:52:39.418Z,10.09
2023-03-13T05:53:39.405Z,10.14
2023-03-13T05:54:39.397Z,10.14
2023-03-13T05:55:39.377Z,10.04
2023-03-13T05:56:39.355Z,10.09
2023-03-13T05:57:39.370Z,10.10
2023-03-13T05:58:39.338Z,10.22
2023-03-13T05:59:39.325Z,10.26
2023-03-13T06:00:39.325Z,10.30
2023-03-13T06:01:39.312Z,10.25
2023-03-13T06:02:39.315Z,10.32
2023-03-13T06:03:39.433Z,10.21
2023-03-13T06:04:39.461Z,10.26
2023-03-13T06:05:39.269Z,10.22
2023-03-13T06:06:39.256Z,10.24
2023-03-13T06:07:39.272Z,10.22
2023-03-13T06:08:39.236Z,10.15
2023-03-13T06:09:39.223Z,10.25
2023-03-13T06:10:39.208Z,10.18
2023-03-13T06:11:39.213Z,10.21
2023-03-13T06:12:39.231Z,10.21
2023-03-13T06:13:39.173Z,10.12
2023-03-13T06:14:39.184Z,10.22
2023-03-13T06:15:39.168Z,10.25
2023-03-13T06:16:39.151Z,10.32
2023-03-13T06:17:39.156Z,10.26
2023-03-13T06:18:39.124Z,10.32
2023-03-13T06:19:39.136Z,10.32
2023-03-13T06:20:40.694Z,10.28
2023-03-13T06:21:39.106Z,10.24
2023-03-13T06:22:39.102Z,10.26
2023-03-13T06:23:39.098Z,10.30
2023-03-13T06:24:39.086Z,10.32
2023-03-13T06:25:39.076Z,10.33
2023-03-13T06:26:39.079Z,10.28
2023-03-13T06:27:39.043Z,10.30
2023-03-13T06:28:39.021Z,10.40
2023-03-13T06:29:39.013Z,10.36
2023-03-13T06:30:39.017Z,10.34
2023-03-13T06:31:39.177Z,10.33
2023-03-13T06:32:39.151Z,10.39
2023-03-13T06:33:38.971Z,10.46
2023-03-13T06:34:38.981Z,10.46
2023-03-13T06:35:54.833Z,10.43
2023-03-13T06:36:41.064Z,10.46
2023-03-13T06:37:38.958Z,10.44
2023-03-13T06:38:38.922Z,10.43
2023-03-13T06:39:38.921Z,10.44
2023-03-13T06:40:38.904Z,10.53
2023-03-13T06:41:38.889Z,10.53
2023-03-13T06:42:38.897Z,10.52
2023-03-13T06:43:38.870Z,10.56
2023-03-13T06:44:39.001Z,10.60
2023-03-13T06:45:53.727Z,10.58
2023-03-13T06:46:38.888Z,10.56
2023-03-13T06:47:41.718Z,10.60
2023-03-13T06:48:38.822Z,10.65
2023-03-13T06:49:38.801Z,10.62
2023-03-13T06:50:38.813Z,10.62
2023-03-13T06:51:38.786Z,10.62
2023-03-13T06:52:43.946Z,10.63
2023-03-13T06:53:40.784Z,10.68
2023-03-13T06:54:38.763Z,10.76
2023-03-13T06:55:38.746Z,10.78
2023-03-13T06:56:38.731Z,10.78
2023-03-13T06:57:38.739Z,10.77
2023-03-13T06:58:38.715Z,10.71
2023-03-13T06:59:38.707Z,10.76
2023-03-13T07:00:38.753Z,10.76
2023-03-13T07:01:38.687Z,10.68
2023-03-13T07:02:38.677Z,10.74
2023-03-13T07:03:38.723Z,10.73
2023-03-13T07:04:38.659Z,10.73
2023-03-13T07:05:38.639Z,10.88
2023-03-13T07:06:38.629Z,10.91
2023-03-13T07:07:38.640Z,10.86
2023-03-13T07:08:38.619Z,10.77
2023-03-13T07:09:38.595Z,10.95
2023-03-13T07:10:38.589Z,11.01
2023-03-13T07:11:38.587Z,11.01
2023-03-13T07:12:38.572Z,10.99
2023-03-13T07:13:38.570Z,11.01
2023-03-13T07:14:38.548Z,10.99
2023-03-13T07:15:38.552Z,10.95
2023-03-13T07:16:38.566Z,10.95
2023-03-13T07:17:38.616Z,10.96
2023-03-13T07:18:38.511Z,10.98
2023-03-13T07:19:38.509Z,11.03
2023-03-13T07:20:38.563Z,11.02
2023-03-13T07:21:38.469Z,11.03
2023-03-13T07:22:38.482Z,11.10
2023-03-13T07:23:38.462Z,11.09
2023-03-13T07:24:38.479Z,11.13
2023-03-13T07:25:38.439Z,11.01
2023-03-13T07:26:38.507Z,11.16
2023-03-13T07:27:38.440Z,11.16
2023-03-13T07:28:38.410Z,11.13
2023-03-13T07:29:38.404Z,11.17
2023-03-13T07:30:38.377Z,11.14
2023-03-13T07:31:38.434Z,11.24
2023-03-13T07:32:38.465Z,11.16
2023-03-13T07:33:38.355Z,11.28
2023-03-13T07:34:38.342Z,11.25
2023-03-13T07:35:40.180Z,11.34
2023-03-13T07:36:39.418Z,11.39
2023-03-13T07:37:38.302Z,11.27
2023-03-13T07:38:38.310Z,11.29
2023-03-13T07:39:38.279Z,11.31
2023-03-13T07:40:38.268Z,11.44
2023-03-13T07:41:39.053Z,11.44
2023-03-13T07:42:39.261Z,11.46
2023-03-13T07:43:38.249Z,11.54
2023-03-13T07:44:38.247Z,11.44
2023-03-13T07:45:38.274Z,11.54
2023-03-13T07:46:38.214Z,11.61
2023-03-13T07:47:38.195Z,11.65
2023-03-13T07:48:39.198Z,11.57
2023-03-13T07:49:38.187Z,11.65
2023-03-13T07:50:38.200Z,11.68
2023-03-13T07:51:43.990Z,11.57
2023-03-13T07:52:40.179Z,11.53
2023-03-13T07:53:38.208Z,11.52
2023-03-13T07:54:38.214Z,11.61
2023-03-13T07:55:38.159Z,11.56
2023-03-13T07:56:38.108Z,11.64
2023-03-13T07:57:38.104Z,11.67
2023-03-13T07:58:38.159Z,11.61
2023-03-13T07:59:38.086Z,11.61
2023-03-13T08:00:38.069Z,11.67
2023-03-13T08:01:38.060Z,11.64
2023-03-13T08:02:38.103Z,11.72
2023-03-13T08:03:38.167Z,11.74
2023-03-13T08:04:38.026Z,11.68
2023-03-13T08:05:38.046Z,11.67
2023-03-13T08:06:38.022Z,11.64
2023-03-13T08:07:38.011Z,11.72
2023-03-13T08:08:37.998Z,11.61
2023-03-13T08:09:37.974Z,11.74
2023-03-13T08:10:37.986Z,11.74
2023-03-13T08:11:37.973Z,11.78
2023-03-13T08:12:37.954Z,11.86
2023-03-13T08:13:38.950Z,11.78
2023-03-13T08:14:37.991Z,11.90
2023-03-13T08:15:37.922Z,11.83
2023-03-13T08:16:37.940Z,11.85
2023-03-13T08:17:37.885Z,11.86
2023-03-13T08:18:37.888Z,11.87
2023-03-13T08:19:37.874Z,11.89
2023-03-13T08:20:37.862Z,11.93
2023-03-13T08:21:37.852Z,11.90
2023-03-13T08:22:37.831Z,11.96
2023-03-13T08:23:37.836Z,11.96
2023-03-13T08:24:37.804Z,12.01
2023-03-13T08:25:37.802Z,11.89
2023-03-13T08:26:37.791Z,12.08
2023-03-13T08:27:37.778Z,12.11
2023-03-13T08:28:37.803Z,12.13
2023-03-13T08:29:37.756Z,12.12
2023-03-13T08:30:37.795Z,12.16
2023-03-13T08:31:37.750Z,12.13
2023-03-13T08:32:37.778Z,12.24
2023-03-13T08:33:37.736Z,12.15
2023-03-13T08:34:37.709Z,12.21
2023-03-13T08:35:37.730Z,12.26
2023-03-13T08:36:37.690Z,12.21
2023-03-13T08:37:37.680Z,12.21
2023-03-13T08:38:37.679Z,12.21
2023-03-13T08:39:37.658Z,12.23
2023-03-13T08:40:37.656Z,12.37
2023-03-13T08:41:37.644Z,12.39
2023-03-13T08:42:37.630Z,12.38
2023-03-13T08:43:37.630Z,12.26
2023-03-13T08:44:37.615Z,12.34
2023-03-13T08:45:37.609Z,12.37
2023-03-13T08:46:37.680Z,12.37
2023-03-13T08:47:37.564Z,12.41
2023-03-13T08:48:37.572Z,12.48
2023-03-13T08:49:38.589Z,12.46
2023-03-13T08:50:37.548Z,12.52
2023-03-13T08:51:37.535Z,12.49
2023-03-13T08:52:37.534Z,12.34
2023-03-13T08:53:37.527Z,12.37
2023-03-13T08:54:37.523Z,12.44
2023-03-13T08:55:37.488Z,12.44
2023-03-13T08:56:37.482Z,12.44
2023-03-13T08:57:37.481Z,12.49
2023-03-13T08:58:37.491Z,12.57
2023-03-13T08:59:37.454Z,12.37
2023-03-13T09:00:37.453Z,12.59
2023-03-13T09:01:37.433Z,12.48
2023-03-13T09:02:37.487Z,12.70
2023-03-13T09:03:37.479Z,12.63
2023-03-13T09:04:37.412Z,12.54
2023-03-13T09:05:53.152Z,12.52
2023-03-13T09:07:04.768Z,12.66
2023-03-13T09:07:37.452Z,12.64
2023-03-13T09:08:37.414Z,12.64
2023-03-13T09:09:37.430Z,12.60
2023-03-13T09:10:37.457Z,12.75
2023-03-13T09:11:37.383Z,12.74
2023-03-13T09:12:37.391Z,12.67
2023-03-13T09:13:37.383Z,12.64
2023-03-13T09:14:37.374Z,12.59
2023-03-13T09:15:37.403Z,12.62
2023-03-13T09:16:37.321Z,12.69
2023-03-13T09:17:37.299Z,12.57
2023-03-13T09:18:37.355Z,12.79
2023-03-13T09:19:38.182Z,12.69
2023-03-13T09:20:37.342Z,12.78
2023-03-13T09:21:37.301Z,12.82
2023-03-13T09:22:37.293Z,12.84
2023-03-13T09:23:37.304Z,12.81
2023-03-13T09:24:37.254Z,12.95
2023-03-13T09:25:37.252Z,12.88
2023-03-13T09:26:37.242Z,12.82
2023-03-13T09:27:37.220Z,12.81
2023-03-13T09:28:37.254Z,12.78
2023-03-13T09:29:37.202Z,12.78
2023-03-13T09:30:37.229Z,12.71
2023-03-13T09:31:37.282Z,12.88
2023-03-13T09:32:37.269Z,12.87
2023-03-13T09:33:37.238Z,12.85
2023-03-13T09:34:37.246Z,12.89
2023-03-13T09:35:37.246Z,13.02
2023-03-13T09:36:37.155Z,13.04
2023-03-13T09:37:37.141Z,12.85
2023-03-13T09:38:37.154Z,13.07
2023-03-13T09:39:37.142Z,13.11
2023-03-13T09:40:37.114Z,12.93
2023-03-13T09:41:37.142Z,13.09
2023-03-13T09:42:37.081Z,13.03
2023-03-13T09:43:37.087Z,13.02
2023-03-13T09:44:37.079Z,13.17
2023-03-13T09:45:37.103Z,13.21
2023-03-13T09:46:37.062Z,13.24
2023-03-13T09:47:37.039Z,13.30
2023-03-13T09:48:37.077Z,13.29
2023-03-13T09:49:37.048Z,13.40
2023-03-13T09:50:37.031Z,13.46
2023-03-13T09:51:37.014Z,13.52
2023-03-13T09:52:37.006Z,13.62
2023-03-13T09:53:37.017Z,13.73
2023-03-13T09:54:36.989Z,13.88
2023-03-13T09:55:36.980Z,13.84
2023-03-13T09:56:36.945Z,13.83
2023-03-13T09:57:36.964Z,13.91
2023-03-13T09:58:37.078Z,13.88
2023-03-13T09:59:36.974Z,13.94
2023-03-13T10:00:36.932Z,13.91
2023-03-13T10:01:36.963Z,13.92
2023-03-13T10:02:36.891Z,13.83
2023-03-13T10:03:36.897Z,13.80
2023-03-13T10:04:37.803Z,13.76
2023-03-13T10:05:36.831Z,13.81
2023-03-13T10:06:36.885Z,13.77
2023-03-13T10:07:36.814Z,13.71
2023-03-13T10:08:36.802Z,13.65
2023-03-13T10:09:36.875Z,13.74
2023-03-13T10:10:36.804Z,13.76
2023-03-13T10:11:36.792Z,13.63
2023-03-13T10:12:36.789Z,13.70
2023-03-13T10:13:36.818Z,13.59
2023-03-13T10:14:36.804Z,13.59
2023-03-13T10:15:36.761Z,13.67
2023-03-13T10:16:36.787Z,13.55
2023-03-13T10:17:37.742Z,13.58
2023-03-13T10:18:36.729Z,13.63
2023-03-13T10:19:36.767Z,13.70
2023-03-13T10:20:36.757Z,13.62
2023-03-13T10:21:36.680Z,13.63
2023-03-13T10:22:36.716Z,13.76
2023-03-13T10:23:36.728Z,13.65
2023-03-13T10:24:36.693Z,13.70
2023-03-13T10:25:36.833Z,13.70
2023-03-13T10:26:36.676Z,13.69
2023-03-13T10:27:36.606Z,13.71
2023-03-13T10:28:36.698Z,13.65
2023-03-13T10:29:36.610Z,13.69
2023-03-13T10:30:36.899Z,13.77
2023-03-13T10:31:37.862Z,13.65
2023-03-13T10:32:36.636Z,13.67
2023-03-13T10:33:38.486Z,13.70
2023-03-13T10:34:36.927Z,13.74
2023-03-13T10:36:14.522Z,13.74
2023-03-13T10:36:37.551Z,13.69
2023-03-13T10:38:16.373Z,13.70
2023-03-13T10:38:41.245Z,13.70
2023-03-13T10:39:49.841Z,13.71
2023-03-13T10:40:37.617Z,13.63
2023-03-13T10:45:26.009Z,13.69
2023-03-13T10:48:12.348Z,13.69
2023-03-13T10:48:41.343Z,13.73
2023-03-13T10:50:56.257Z,13.58
2023-03-13T10:51:39.698Z,13.70
2023-03-13T10:52:03.854Z,13.59
2023-03-13T10:56:00.247Z,13.73
2023-03-13T10:57:54.644Z,13.59
2023-03-13T10:58:46.342Z,13.81
2023-03-13T10:59:38.696Z,13.70
2023-03-13T11:02:07.768Z,13.71
2023-03-13T11:03:14.596Z,13.74
2023-03-13T11:06:40.916Z,13.81
2023-03-13T11:08:00.759Z,13.79
2023-03-13T11:09:03.561Z,13.89
2023-03-13T11:09:28.720Z,14.01
2023-03-13T11:10:24.114Z,14.09
2023-03-13T11:11:24.138Z,14.06
2023-03-13T11:12:24.130Z,14.13
2023-03-13T11:13:35.506Z,14.28
2023-03-13T11:14:39.317Z,14.37
2023-03-13T11:15:25.673Z,14.42
2023-03-13T11:16:32.269Z,14.61
2023-03-13T11:17:35.029Z,14.60
2023-03-13T11:18:30.158Z,14.64
2023-03-13T11:19:27.091Z,14.74
2023-03-13T11:20:24.123Z,14.80
2023-03-13T11:21:25.632Z,14.88
2023-03-13T11:22:25.140Z,14.74
2023-03-13T11:23:29.368Z,14.80
2023-03-13T11:25:10.937Z,14.91
2023-03-13T11:27:02.022Z,14.84
2023-03-13T11:27:04.476Z,14.74
2023-03-13T11:27:58.975Z,14.71
2023-03-13T11:29:06.655Z,14.75
2023-03-13T11:29:56.808Z,14.80
2023-03-13T11:30:56.723Z,14.62
2023-03-13T11:31:57.587Z,14.65
2023-03-13T11:32:59.525Z,14.56
2023-03-13T11:33:57.624Z,14.67
2023-03-13T11:34:58.319Z,14.64
2023-03-13T11:35:57.593Z,14.60
2023-03-13T11:36:57.275Z,14.65
2023-03-13T11:37:56.382Z,14.60
2023-03-13T11:38:57.144Z,14.60
2023-03-13T11:39:56.374Z,14.57
2023-03-13T11:40:56.369Z,14.60
2023-03-13T11:41:56.403Z,14.44
2023-03-13T11:42:56.372Z,14.50
2023-03-13T11:43:58.640Z,14.54
2023-03-13T11:44:56.358Z,14.53
2023-03-13T11:45:56.555Z,14.56
2023-03-13T11:46:56.296Z,14.54
2023-03-13T11:47:56.262Z,14.62
2023-03-13T11:48:56.381Z,14.57
2023-03-13T11:49:56.346Z,14.71
2023-03-13T11:50:57.168Z,14.67
2023-03-13T11:51:56.288Z,14.60
2023-03-13T11:52:56.254Z,14.50
2023-03-13T11:53:56.348Z,14.68
2023-03-13T11:54:56.982Z,14.69
2023-03-13T11:55:56.242Z,14.75
2023-03-13T11:56:56.320Z,14.69
2023-03-13T11:57:56.229Z,14.80
2023-03-13T11:58:56.217Z,14.65
2023-03-13T11:59:56.345Z,14.65
2023-03-13T12:00:56.358Z,14.72
2023-03-13T12:01:56.215Z,14.78
2023-03-13T12:02:56.248Z,14.75
2023-03-13T12:03:56.176Z,14.74
2023-03-13T12:04:56.090Z,14.80
2023-03-13T12:05:56.123Z,14.84
2023-03-13T12:06:56.044Z,14.93
2023-03-13T12:07:56.074Z,14.91
2023-03-13T12:08:56.015Z,14.98
2023-03-13T12:09:56.085Z,14.93
2023-03-13T12:10:55.993Z,14.99
2023-03-13T12:11:55.993Z,14.91
2023-03-13T12:12:55.980Z,14.94
2023-03-13T12:13:55.974Z,15.08
2023-03-13T12:14:56.002Z,14.98
2023-03-13T12:15:55.998Z,14.95
2023-03-13T12:16:56.020Z,15.02
2023-03-13T12:17:56.018Z,14.98
2023-03-13T12:18:55.911Z,14.94
2023-03-13T12:19:55.941Z,14.88
2023-03-13T12:20:55.937Z,14.91
2023-03-13T12:21:55.972Z,14.90
2023-03-13T12:22:55.877Z,14.84
2023-03-13T12:23:55.949Z,14.86
2023-03-13T12:24:55.908Z,14.88
2023-03-13T12:25:55.870Z,14.93
2023-03-13T12:26:55.962Z,14.98
2023-03-13T12:27:56.017Z,14.93
2023-03-13T12:28:55.809Z,15.02
2023-03-13T12:29:56.899Z,14.93
2023-03-13T12:30:55.926Z,15.08
2023-03-13T12:31:56.373Z,15.19
2023-03-13T12:32:55.858Z,15.19
2023-03-13T12:33:55.772Z,15.21
2023-03-13T12:34:55.771Z,15.28
2023-03-13T12:35:55.843Z,15.33
2023-03-13T12:36:55.793Z,15.24
2023-03-13T12:37:55.746Z,15.28
2023-03-13T12:38:55.725Z,15.27
2023-03-13T12:39:56.857Z,15.21
2023-03-13T12:40:55.655Z,15.35
2023-03-13T12:41:55.713Z,15.35
2023-03-13T12:42:55.683Z,15.49
2023-03-13T12:44:07.869Z,15.42
2023-03-13T12:44:57.674Z,15.51
2023-03-13T12:45:55.770Z,15.60
2023-03-13T12:46:55.682Z,15.59
2023-03-13T12:47:55.620Z,15.74
2023-03-13T12:48:55.600Z,15.78
2023-03-13T12:49:55.671Z,15.67
2023-03-13T12:50:55.581Z,15.81
2023-03-13T12:51:55.605Z,15.66
2023-03-13T12:52:55.586Z,15.74
2023-03-13T12:53:55.638Z,15.70
2023-03-13T12:54:55.542Z,15.59
2023-03-13T12:55:55.542Z,15.64
2023-03-13T12:56:55.509Z,15.51
2023-03-13T12:57:55.586Z,15.51
2023-03-13T12:58:55.537Z,15.54
2023-03-13T12:59:55.508Z,15.49
2023-03-13T13:00:56.495Z,15.49
2023-03-13T13:01:55.578Z,15.52
2023-03-13T13:02:55.490Z,15.39
2023-03-13T13:03:55.510Z,15.26
2023-03-13T13:04:55.542Z,15.17
2023-03-13T13:05:55.496Z,15.27
2023-03-13T13:06:55.453Z,15.19
2023-03-13T13:07:55.419Z,15.28
2023-03-13T13:08:55.396Z,15.15
2023-03-13T13:09:55.393Z,15.30
2023-03-13T13:10:55.406Z,15.13
2023-03-13T13:11:55.410Z,15.06
2023-03-13T13:12:55.407Z,15.12
2023-03-13T13:13:55.356Z,15.03
2023-03-13T13:14:55.341Z,14.99
2023-03-13T13:15:55.342Z,15.03